createdAt,value
2017-10-23T00:00:48.347Z,0.00
2017-10-23T00:01:48.350Z,0.00
2017-10-23T00:02:48.341Z,0.00
2017-10-23T00:03:48.335Z,0.00
2017-10-23T00:04:48.331Z,0.00
2017-10-23T00:05:48.334Z,0.00
2017-10-23T00:06:48.330Z,0.00
2017-10-23T00:07:48.318Z,0.00
2017-10-23T00:08:48.315Z,0.00
2017-10-23T00:09:48.316Z,0.00
2017-10-23T00:10:48.310Z,0.00
2017-10-23T00:11:48.303Z,0.00
2017-10-23T00:12:48.301Z,0.00
2017-10-23T00:13:48.295Z,0.00
2017-10-23T00:14:48.290Z,0.00
2017-10-23T00:15:48.287Z,0.00
2017-10-23T00:16:48.286Z,0.00
2017-10-23T00:17:48.285Z,0.00
2017-10-23T00:18:48.275Z,0.00
2017-10-23T00:19:48.272Z,0.00
2017-10-23T00:20:48.264Z,0.00
2017-10-23T00:21:48.260Z,0.00
2017-10-23T00:22:48.258Z,0.00
2017-10-23T00:23:48.252Z,0.00
2017-10-23T00:24:48.255Z,0.00
2017-10-23T00:25:48.245Z,0.00
2017-10-23T00:26:48.243Z,0.00
2017-10-23T00:27:48.238Z,0.00
2017-10-23T00:28:48.232Z,0.00
2017-10-23T00:29:48.227Z,0.00
2017-10-23T00:30:48.221Z,0.00
2017-10-23T00:31:48.219Z,0.00
2017-10-23T00:32:48.211Z,0.00
2017-10-23T00:33:48.210Z,0.00
2017-10-23T00:34:48.210Z,0.00
2017-10-23T00:35:48.202Z,0.00
2017-10-23T00:36:48.201Z,0.00
2017-10-23T00:37:48.192Z,0.00
2017-10-23T00:38:48.190Z,0.00
2017-10-23T00:39:48.187Z,0.00
2017-10-23T00:40:48.202Z,0.00
2017-10-23T00:41:48.176Z,0.00
2017-10-23T00:42:48.174Z,0.00
2017-10-23T00:43:48.170Z,0.00
2017-10-23T00:44:48.165Z,0.00
2017-10-23T00:45:48.160Z,0.00
2017-10-23T00:46:48.160Z,0.00
2017-10-23T00:47:48.148Z,0.00
2017-10-23T00:48:48.148Z,0.00
2017-10-23T00:49:48.146Z,0.00
2017-10-23T00:50:48.139Z,0.00
2017-10-23T00:51:48.136Z,0.00
2017-10-23T00:52:48.130Z,0.00
2017-10-23T00:53:48.128Z,0.00
2017-10-23T00:54:48.123Z,0.00
2017-10-23T00:55:48.119Z,0.00
2017-10-23T00:56:48.124Z,0.00
2017-10-23T00:57:48.111Z,0.00
2017-10-23T00:58:48.108Z,0.00
2017-10-23T00:59:48.104Z,0.00
2017-10-23T01:00:48.099Z,0.00
2017-10-23T01:01:48.098Z,0.00
2017-10-23T01:02:48.089Z,0.00
2017-10-23T01:03:48.087Z,0.00
2017-10-23T01:04:48.082Z,0.00
2017-10-23T01:05:48.078Z,0.00
2017-10-23T01:06:48.077Z,0.00
2017-10-23T01:07:48.069Z,0.00
2017-10-23T01:08:48.064Z,0.00
2017-10-23T01:09:48.062Z,0.00
2017-10-23T01:10:48.083Z,0.00
2017-10-23T01:11:48.052Z,0.00
2017-10-23T01:12:48.049Z,0.00
2017-10-23T01:13:48.044Z,0.00
2017-10-23T01:14:48.043Z,0.00
2017-10-23T01:15:48.034Z,0.00
2017-10-23T01:16:48.034Z,0.00
2017-10-23T01:17:48.026Z,0.00
2017-10-23T01:18:48.027Z,0.00
2017-10-23T01:19:48.019Z,0.00
2017-10-23T01:20:48.017Z,0.00
2017-10-23T01:21:48.013Z,0.00
2017-10-23T01:22:48.008Z,0.00
2017-10-23T01:23:48.001Z,0.00
2017-10-23T01:24:47.999Z,0.00
2017-10-23T01:25:47.995Z,0.00
2017-10-23T01:26:47.995Z,0.00
2017-10-23T01:27:47.989Z,0.00
2017-10-23T01:28:47.983Z,0.00
2017-10-23T01:29:47.981Z,0.00
2017-10-23T01:30:47.975Z,0.00
2017-10-23T01:31:47.972Z,0.00
2017-10-23T01:32:47.968Z,0.00
2017-10-23T01:33:47.965Z,0.00
2017-10-23T01:34:47.961Z,0.00
2017-10-23T01:35:47.955Z,0.00
2017-10-23T01:36:47.953Z,0.00
2017-10-23T01:37:47.949Z,0.00
2017-10-23T01:38:47.947Z,0.00
2017-10-23T01:39:47.943Z,0.00
2017-10-23T01:40:47.953Z,0.00
2017-10-23T01:41:47.933Z,0.00
2017-10-23T01:42:47.928Z,0.00
2017-10-23T01:43:47.925Z,0.00
2017-10-23T01:44:47.919Z,0.00
2017-10-23T01:45:47.917Z,0.00
2017-10-23T01:46:47.918Z,0.00
2017-10-23T01:47:47.908Z,0.00
2017-10-23T01:48:47.920Z,0.00
2017-10-23T01:49:47.902Z,0.00
2017-10-23T01:50:47.897Z,0.00
2017-10-23T01:51:47.890Z,0.00
2017-10-23T01:52:47.892Z,0.00
2017-10-23T01:53:47.888Z,0.00
2017-10-23T01:54:47.883Z,0.00
2017-10-23T01:55:47.875Z,0.00
2017-10-23T01:56:47.884Z,0.00
2017-10-23T01:57:47.893Z,0.00
2017-10-23T01:58:47.891Z,0.00
2017-10-23T01:59:47.862Z,0.00
2017-10-23T02:00:47.860Z,0.00
2017-10-23T02:01:47.855Z,0.00
2017-10-23T02:02:47.852Z,0.00
2017-10-23T02:03:47.850Z,0.00
2017-10-23T02:04:47.842Z,0.00
2017-10-23T02:05:47.843Z,0.00
2017-10-23T02:06:47.839Z,0.00
2017-10-23T02:07:47.832Z,0.00
2017-10-23T02:08:47.826Z,0.00
2017-10-23T02:09:47.823Z,0.00
2017-10-23T02:10:47.818Z,0.00
2017-10-23T02:11:47.823Z,0.00
2017-10-23T02:12:47.811Z,0.00
2017-10-23T02:13:47.802Z,0.00
2017-10-23T02:14:47.804Z,0.00
2017-10-23T02:15:47.798Z,0.00
2017-10-23T02:16:47.796Z,0.00
2017-10-23T02:17:47.789Z,0.00
2017-10-23T02:18:47.787Z,0.00
2017-10-23T02:19:47.784Z,0.00
2017-10-23T02:20:47.779Z,0.00
2017-10-23T02:21:47.776Z,0.00
2017-10-23T02:22:47.774Z,0.00
2017-10-23T02:23:47.764Z,0.00
2017-10-23T02:24:47.765Z,0.00
2017-10-23T02:25:47.761Z,0.00
2017-10-23T02:26:47.763Z,0.00
2017-10-23T02:27:47.754Z,0.00
2017-10-23T02:28:47.750Z,0.00
2017-10-23T02:29:47.744Z,0.00
2017-10-23T02:30:47.738Z,0.00
2017-10-23T02:31:47.737Z,0.00
2017-10-23T02:32:47.734Z,0.00
2017-10-23T02:33:47.729Z,0.00
2017-10-23T02:34:47.731Z,0.00
2017-10-23T02:35:47.725Z,0.00
2017-10-23T02:36:47.721Z,0.00
2017-10-23T02:37:47.746Z,0.00
2017-10-23T02:38:47.711Z,0.00
2017-10-23T02:39:47.707Z,0.00
2017-10-23T02:40:47.702Z,0.00
2017-10-23T02:41:47.698Z,0.00
2017-10-23T02:42:47.697Z,0.00
2017-10-23T02:43:47.695Z,0.00
2017-10-23T02:44:47.685Z,0.00
2017-10-23T02:45:47.682Z,0.00
2017-10-23T02:46:47.679Z,0.00
2017-10-23T02:47:47.673Z,0.00
2017-10-23T02:48:47.670Z,0.00
2017-10-23T02:49:47.665Z,0.00
2017-10-23T02:50:47.663Z,0.00
2017-10-23T02:51:47.656Z,0.00
2017-10-23T02:52:47.653Z,0.00
2017-10-23T02:53:47.648Z,0.00
2017-10-23T02:54:47.651Z,0.00
2017-10-23T02:55:47.644Z,0.00
2017-10-23T02:56:47.641Z,0.00
2017-10-23T02:57:47.633Z,0.00
2017-10-23T02:58:47.629Z,0.00
2017-10-23T02:59:47.624Z,0.00
2017-10-23T03:00:47.616Z,0.00
2017-10-23T03:01:47.616Z,0.00
2017-10-23T03:02:47.614Z,0.00
2017-10-23T03:03:47.607Z,0.00
2017-10-23T03:04:47.602Z,0.00
2017-10-23T03:05:47.601Z,0.00
2017-10-23T03:06:47.600Z,0.00
2017-10-23T03:07:47.590Z,0.00
2017-10-23T03:08:47.593Z,0.00
2017-10-23T03:09:47.584Z,0.00
2017-10-23T03:10:47.580Z,0.00
2017-10-23T03:11:47.574Z,0.00
2017-10-23T03:12:47.579Z,0.00
2017-10-23T03:13:47.565Z,0.00
2017-10-23T03:14:47.558Z,0.00
2017-10-23T03:15:47.557Z,0.00
2017-10-23T03:16:47.555Z,0.00
2017-10-23T03:17:47.550Z,0.00
2017-10-23T03:18:47.546Z,0.00
2017-10-23T03:19:47.541Z,0.00
2017-10-23T03:20:47.536Z,0.00
2017-10-23T03:21:47.534Z,0.00
2017-10-23T03:22:47.528Z,0.00
2017-10-23T03:23:47.533Z,0.00
2017-10-23T03:24:47.519Z,0.00
2017-10-23T03:25:47.515Z,0.00
2017-10-23T03:26:47.521Z,0.00
2017-10-23T03:27:47.506Z,0.00
2017-10-23T03:28:47.503Z,0.00
2017-10-23T03:29:47.499Z,0.00
2017-10-23T03:30:47.494Z,0.00
2017-10-23T03:31:47.491Z,0.00
2017-10-23T03:32:47.487Z,0.00
2017-10-23T03:33:47.484Z,0.00
2017-10-23T03:34:47.481Z,0.00
2017-10-23T03:35:47.475Z,0.00
2017-10-23T03:36:47.469Z,0.00
2017-10-23T03:37:47.467Z,0.00
2017-10-23T03:38:47.463Z,0.00
2017-10-23T03:39:47.457Z,0.00
2017-10-23T03:40:47.450Z,0.00
2017-10-23T03:41:47.450Z,0.00
2017-10-23T03:42:47.457Z,0.00
2017-10-23T03:43:47.440Z,0.00
2017-10-23T03:44:47.435Z,0.00
2017-10-23T03:45:47.433Z,0.00
2017-10-23T03:46:47.431Z,0.00
2017-10-23T03:47:47.424Z,0.00
2017-10-23T03:48:47.419Z,0.00
2017-10-23T03:49:47.416Z,0.00
2017-10-23T03:50:47.411Z,0.00
2017-10-23T03:51:47.409Z,0.00
2017-10-23T03:52:47.401Z,0.00
2017-10-23T03:53:47.400Z,0.00
2017-10-23T03:54:47.398Z,0.00
2017-10-23T03:55:47.392Z,0.00
2017-10-23T03:56:47.393Z,0.00
2017-10-23T03:57:47.382Z,0.00
2017-10-23T03:58:47.377Z,0.00
2017-10-23T03:59:47.373Z,0.00
2017-10-23T04:00:47.369Z,0.00
2017-10-23T04:01:47.363Z,0.00
2017-10-23T04:02:47.362Z,0.00
2017-10-23T04:03:47.355Z,0.00
2017-10-23T04:04:47.355Z,0.00
2017-10-23T04:05:47.349Z,0.00
2017-10-23T04:06:47.351Z,0.00
2017-10-23T04:07:47.341Z,0.00
2017-10-23T04:08:47.336Z,0.00
2017-10-23T04:09:47.332Z,0.00
2017-10-23T04:10:47.327Z,0.00
2017-10-23T04:11:47.322Z,0.00
2017-10-23T04:12:47.324Z,0.00
2017-10-23T04:13:47.316Z,0.00
2017-10-23T04:14:47.312Z,0.00
2017-10-23T04:15:47.308Z,0.00
2017-10-23T04:16:47.307Z,0.00
2017-10-23T04:17:47.300Z,0.00
2017-10-23T04:18:47.296Z,0.00
2017-10-23T04:19:47.290Z,0.00
2017-10-23T04:20:47.287Z,0.00
2017-10-23T04:21:47.283Z,0.00
2017-10-23T04:22:47.278Z,0.00
2017-10-23T04:23:47.274Z,0.00
2017-10-23T04:24:47.265Z,0.00
2017-10-23T04:25:47.266Z,0.00
2017-10-23T04:26:47.265Z,0.00
2017-10-23T04:27:47.263Z,0.00
2017-10-23T04:28:47.254Z,0.00
2017-10-23T04:29:47.252Z,0.00
2017-10-23T04:30:47.248Z,0.00
2017-10-23T04:31:47.243Z,0.00
2017-10-23T04:32:47.238Z,0.00
2017-10-23T04:33:47.234Z,0.00
2017-10-23T04:34:47.232Z,0.00
2017-10-23T04:35:47.225Z,0.00
2017-10-23T04:36:47.224Z,0.00
2017-10-23T04:37:47.218Z,0.00
2017-10-23T04:38:47.217Z,0.00
2017-10-23T04:39:47.205Z,0.00
2017-10-23T04:40:47.205Z,0.00
2017-10-23T04:41:47.204Z,0.00
2017-10-23T04:42:47.199Z,0.00
2017-10-23T04:43:47.193Z,0.00
2017-10-23T04:44:47.194Z,0.00
2017-10-23T04:45:47.186Z,0.00
2017-10-23T04:46:47.185Z,0.00
2017-10-23T04:47:47.176Z,0.00
2017-10-23T04:48:47.177Z,0.00
2017-10-23T04:49:47.172Z,0.00
2017-10-23T04:50:47.165Z,0.00
2017-10-23T04:51:47.162Z,0.00
2017-10-23T04:52:47.158Z,0.00
2017-10-23T04:53:47.156Z,0.00
2017-10-23T04:54:47.151Z,0.00
2017-10-23T04:55:47.156Z,0.00
2017-10-23T04:56:47.154Z,0.00
2017-10-23T04:57:47.138Z,0.00
2017-10-23T04:58:47.148Z,0.00
2017-10-23T04:59:47.132Z,0.00
2017-10-23T05:00:47.126Z,0.00
2017-10-23T05:01:47.122Z,0.00
2017-10-23T05:02:47.119Z,0.00
2017-10-23T05:03:47.115Z,0.00
2017-10-23T05:04:47.109Z,0.00
2017-10-23T05:05:47.102Z,0.00
2017-10-23T05:06:47.105Z,0.00
2017-10-23T05:07:47.096Z,0.00
2017-10-23T05:08:47.093Z,0.00
2017-10-23T05:09:47.089Z,0.00
2017-10-23T05:10:47.091Z,0.00
2017-10-23T05:11:47.079Z,0.00
2017-10-23T05:12:47.078Z,0.00
2017-10-23T05:13:47.075Z,0.00
2017-10-23T05:14:47.072Z,0.00
2017-10-23T05:15:47.065Z,0.00
2017-10-23T05:16:47.062Z,0.00
2017-10-23T05:17:47.058Z,0.00
2017-10-23T05:18:47.057Z,0.00
2017-10-23T05:19:47.050Z,0.00
2017-10-23T05:20:47.047Z,0.00
2017-10-23T05:21:47.043Z,4.00
2017-10-23T05:22:47.044Z,4.00
2017-10-23T05:23:47.034Z,4.00
2017-10-23T05:24:47.032Z,4.00
2017-10-23T05:25:47.028Z,4.00
2017-10-23T05:26:47.026Z,4.00
2017-10-23T05:27:47.027Z,4.00
2017-10-23T05:28:47.016Z,8.00
2017-10-23T05:29:47.012Z,8.00
2017-10-23T05:30:47.009Z,12.00
2017-10-23T05:31:47.004Z,8.00
2017-10-23T05:32:47.000Z,12.00
2017-10-23T05:33:46.996Z,12.00
2017-10-23T05:34:46.993Z,16.00
2017-10-23T05:35:46.989Z,16.00
2017-10-23T05:36:46.982Z,16.00
2017-10-23T05:37:46.986Z,20.00
2017-10-23T05:38:46.978Z,24.00
2017-10-23T05:39:46.976Z,28.00
2017-10-23T05:40:46.969Z,32.00
2017-10-23T05:41:46.965Z,40.00
2017-10-23T05:42:46.967Z,44.00
2017-10-23T05:43:46.956Z,52.00
2017-10-23T05:44:46.951Z,56.00
2017-10-23T05:45:46.952Z,60.00
2017-10-23T05:46:46.942Z,68.00
2017-10-23T05:47:46.943Z,76.00
2017-10-23T05:48:46.936Z,84.00
2017-10-23T05:49:46.933Z,88.00
2017-10-23T05:50:46.931Z,92.00
2017-10-23T05:51:46.925Z,96.00
2017-10-23T05:52:46.920Z,92.00
2017-10-23T05:53:46.916Z,96.00
2017-10-23T05:54:46.918Z,120.00
2017-10-23T05:55:46.911Z,136.00
2017-10-23T05:56:46.906Z,152.00
2017-10-23T05:57:46.905Z,152.00
2017-10-23T05:58:46.907Z,140.00
2017-10-23T05:59:46.895Z,136.00
2017-10-23T06:00:46.890Z,136.00
2017-10-23T06:01:46.887Z,132.00
2017-10-23T06:02:46.884Z,148.00
2017-10-23T06:03:46.879Z,156.00
2017-10-23T06:04:46.875Z,164.00
2017-10-23T06:05:46.889Z,164.00
2017-10-23T06:06:46.954Z,168.00
2017-10-23T06:07:46.865Z,188.00
2017-10-23T06:08:46.861Z,224.00
2017-10-23T06:09:46.870Z,248.00
2017-10-23T06:10:46.854Z,260.00
2017-10-23T06:11:46.847Z,312.00
2017-10-23T06:12:46.845Z,328.00
2017-10-23T06:13:46.850Z,324.00
2017-10-23T06:14:46.839Z,344.00
2017-10-23T06:15:46.836Z,372.00
2017-10-23T06:16:46.831Z,400.00
2017-10-23T06:17:46.830Z,408.00
2017-10-23T06:18:46.832Z,388.00
2017-10-23T06:19:46.817Z,416.00
2017-10-23T06:20:46.816Z,460.00
2017-10-23T06:21:46.812Z,484.00
2017-10-23T06:22:46.813Z,516.00
2017-10-23T06:23:46.804Z,620.00
2017-10-23T06:24:46.802Z,644.00
2017-10-23T06:25:46.797Z,604.00
2017-10-23T06:26:46.793Z,628.00
2017-10-23T06:27:46.794Z,680.00
2017-10-23T06:28:46.786Z,688.00
2017-10-23T06:29:46.782Z,704.00
2017-10-23T06:30:46.778Z,728.00
2017-10-23T06:31:46.772Z,768.00
2017-10-23T06:32:46.771Z,800.00
2017-10-23T06:33:46.768Z,796.00
2017-10-23T06:34:46.763Z,748.00
2017-10-23T06:35:46.757Z,736.00
2017-10-23T06:36:46.751Z,844.00
2017-10-23T06:37:46.753Z,916.00
2017-10-23T06:38:46.747Z,900.00
2017-10-23T06:39:46.744Z,920.00
2017-10-23T06:40:46.742Z,996.00
2017-10-23T06:41:46.736Z,1076.00
2017-10-23T06:42:46.733Z,1100.00
2017-10-23T06:43:46.728Z,1120.00
2017-10-23T06:44:46.724Z,1148.00
2017-10-23T06:45:46.722Z,1168.00
2017-10-23T06:46:46.716Z,1180.00
2017-10-23T06:47:46.719Z,1192.00
2017-10-23T06:48:46.715Z,1272.00
2017-10-23T06:49:46.706Z,1232.00
2017-10-23T06:50:46.701Z,1208.00
2017-10-23T06:51:46.699Z,1252.00
2017-10-23T06:52:46.699Z,1352.00
2017-10-23T06:53:46.692Z,1388.00
2017-10-23T06:54:46.688Z,1352.00
2017-10-23T06:55:46.682Z,1372.00
2017-10-23T06:56:46.681Z,1356.00
2017-10-23T06:57:46.679Z,1464.00
2017-10-23T06:58:46.675Z,1512.00
2017-10-23T06:59:46.670Z,1624.00
2017-10-23T07:00:46.668Z,1748.00
2017-10-23T07:01:46.663Z,1804.00
2017-10-23T07:02:46.661Z,1788.00
2017-10-23T07:03:46.652Z,1804.00
2017-10-23T07:04:46.646Z,1844.00
2017-10-23T07:05:46.648Z,1872.00
2017-10-23T07:06:46.646Z,1976.00
2017-10-23T07:07:46.638Z,2008.00
2017-10-23T07:08:46.639Z,1988.00
2017-10-23T07:09:46.633Z,2108.00
2017-10-23T07:10:46.631Z,2292.00
2017-10-23T07:11:46.625Z,2300.00
2017-10-23T07:12:46.621Z,2440.00
2017-10-23T07:13:46.620Z,2404.00
2017-10-23T07:14:46.623Z,2476.00
2017-10-23T07:15:46.615Z,2400.00
2017-10-23T07:16:46.605Z,2284.00
2017-10-23T07:17:46.611Z,2160.00
2017-10-23T07:18:46.601Z,2044.00
2017-10-23T07:19:46.598Z,2168.00
2017-10-23T07:20:46.603Z,2124.00
2017-10-23T07:21:46.596Z,2200.00
2017-10-23T07:22:46.587Z,2184.00
2017-10-23T07:23:46.585Z,2140.00
2017-10-23T07:24:46.580Z,2024.00
2017-10-23T07:25:46.584Z,2048.00
2017-10-23T07:26:46.574Z,2128.00
2017-10-23T07:27:46.575Z,2228.00
2017-10-23T07:28:46.568Z,2368.00
2017-10-23T07:29:46.565Z,2328.00
2017-10-23T07:30:46.562Z,2296.00
2017-10-23T07:31:46.559Z,2140.00
2017-10-23T07:32:46.552Z,2560.00
2017-10-23T07:33:46.548Z,2648.00
2017-10-23T07:34:46.544Z,2976.00
2017-10-23T07:35:46.550Z,3164.00
2017-10-23T07:36:46.538Z,3076.00
2017-10-23T07:37:46.539Z,3264.00
2017-10-23T07:38:46.536Z,3364.00
2017-10-23T07:39:46.531Z,3488.00
2017-10-23T07:40:46.526Z,3560.00
2017-10-23T07:41:46.523Z,3748.00
2017-10-23T07:42:46.520Z,3756.00
2017-10-23T07:43:46.515Z,3600.00
2017-10-23T07:44:46.513Z,3488.00
2017-10-23T07:45:46.512Z,3472.00
2017-10-23T07:46:46.506Z,3436.00
2017-10-23T07:47:46.501Z,3608.00
2017-10-23T07:48:46.499Z,3496.00
2017-10-23T07:49:46.497Z,3692.00
2017-10-23T07:50:46.493Z,3648.00
2017-10-23T07:51:46.504Z,3684.00
2017-10-23T07:52:46.486Z,3836.00
2017-10-23T07:53:46.484Z,3744.00
2017-10-23T07:54:46.481Z,3604.00
2017-10-23T07:55:46.477Z,3500.00
2017-10-23T07:56:46.470Z,3192.00
2017-10-23T07:57:46.475Z,3364.00
2017-10-23T07:58:46.463Z,3560.00
2017-10-23T07:59:46.464Z,3884.00
2017-10-23T08:00:46.459Z,4324.00
2017-10-23T08:01:46.457Z,4336.00
2017-10-23T08:02:46.462Z,4200.00
2017-10-23T08:03:46.457Z,3816.00
2017-10-23T08:04:46.445Z,4124.00
2017-10-23T08:05:46.445Z,4116.00
2017-10-23T08:06:46.441Z,3824.00
2017-10-23T08:07:46.440Z,3404.00
2017-10-23T08:08:46.433Z,3052.00
2017-10-23T08:09:46.434Z,3080.00
2017-10-23T08:10:46.428Z,2808.00
2017-10-23T08:11:46.418Z,3108.00
2017-10-23T08:12:46.421Z,3428.00
2017-10-23T08:13:46.439Z,3680.00
2017-10-23T08:14:46.428Z,3592.00
2017-10-23T08:15:46.412Z,3872.00
2017-10-23T08:16:46.419Z,4196.00
2017-10-23T08:17:46.406Z,4412.00
2017-10-23T08:18:46.403Z,4740.00
2017-10-23T08:19:46.396Z,4708.00
2017-10-23T08:20:46.392Z,4892.00
2017-10-23T08:21:46.388Z,4868.00
2017-10-23T08:22:46.389Z,5176.00
2017-10-23T08:23:46.385Z,5820.00
2017-10-23T08:24:46.381Z,4956.00
2017-10-23T08:25:46.381Z,4792.00
2017-10-23T08:26:46.372Z,5336.00
2017-10-23T08:27:46.373Z,5360.00
2017-10-23T08:28:46.367Z,4372.00
2017-10-23T08:29:46.362Z,3356.00
2017-10-23T08:30:46.359Z,2948.00
2017-10-23T08:31:46.358Z,2824.00
2017-10-23T08:32:46.355Z,3200.00
2017-10-23T08:33:46.350Z,3544.00
2017-10-23T08:34:46.354Z,4000.00
2017-10-23T08:35:46.349Z,3816.00
2017-10-23T08:36:46.358Z,3800.00
2017-10-23T08:37:46.348Z,3960.00
2017-10-23T08:38:46.334Z,4632.00
2017-10-23T08:39:46.329Z,3736.00
2017-10-23T08:40:46.327Z,2976.00
2017-10-23T08:41:46.324Z,2620.00
2017-10-23T08:42:46.316Z,2908.00
2017-10-23T08:43:46.319Z,2968.00
2017-10-23T08:44:46.313Z,2932.00
2017-10-23T08:45:46.311Z,2900.00
2017-10-23T08:46:46.307Z,2772.00
2017-10-23T08:47:46.314Z,3068.00
2017-10-23T08:48:46.301Z,2912.00
2017-10-23T08:49:46.298Z,2832.00
2017-10-23T08:50:46.292Z,2652.00
2017-10-23T08:51:46.290Z,2236.00
2017-10-23T08:52:46.288Z,2636.00
2017-10-23T08:53:46.284Z,2900.00
2017-10-23T08:54:46.281Z,2532.00
2017-10-23T08:55:46.277Z,2064.00
2017-10-23T08:56:46.276Z,2172.00
2017-10-23T08:57:46.272Z,2436.00
2017-10-23T08:58:46.270Z,2452.00
2017-10-23T08:59:46.262Z,2592.00
2017-10-23T09:00:46.260Z,2440.00
2017-10-23T09:01:46.253Z,2188.00
2017-10-23T09:02:46.254Z,2272.00
2017-10-23T09:03:46.264Z,2584.00
2017-10-23T09:04:46.247Z,2160.00
2017-10-23T09:05:46.248Z,2072.00
2017-10-23T09:06:46.241Z,2380.00
2017-10-23T09:07:46.241Z,1864.00
2017-10-23T09:08:46.233Z,1688.00
2017-10-23T09:09:46.238Z,1888.00
2017-10-23T09:10:46.229Z,2012.00
2017-10-23T09:11:46.224Z,1856.00
2017-10-23T09:12:46.227Z,1776.00
2017-10-23T09:13:46.218Z,2224.00
2017-10-23T09:14:46.216Z,2280.00
2017-10-23T09:15:46.214Z,2212.00
2017-10-23T09:16:46.209Z,2352.00
2017-10-23T09:17:46.211Z,2056.00
2017-10-23T09:18:46.205Z,1976.00
2017-10-23T09:19:46.199Z,1928.00
2017-10-23T09:20:46.196Z,1920.00
2017-10-23T09:21:46.192Z,2108.00
2017-10-23T09:22:46.191Z,2280.00
2017-10-23T09:23:46.204Z,2552.00
2017-10-23T09:24:46.187Z,2776.00
2017-10-23T09:25:46.181Z,2964.00
2017-10-23T09:26:46.178Z,3188.00
2017-10-23T09:27:46.174Z,3084.00
2017-10-23T09:28:46.169Z,2848.00
2017-10-23T09:29:46.182Z,2692.00
2017-10-23T09:30:46.166Z,2864.00
2017-10-23T09:31:46.162Z,2720.00
2017-10-23T09:32:46.157Z,3088.00
2017-10-23T09:33:46.155Z,3280.00
2017-10-23T09:34:46.153Z,3276.00
2017-10-23T09:35:46.149Z,3480.00
2017-10-23T09:36:46.145Z,3576.00
2017-10-23T09:37:46.157Z,3856.00
2017-10-23T09:38:46.138Z,4100.00
2017-10-23T09:39:46.134Z,3544.00
2017-10-23T09:40:46.133Z,3948.00
2017-10-23T09:41:46.129Z,3944.00
2017-10-23T09:42:46.126Z,3620.00
2017-10-23T09:43:46.121Z,3724.00
2017-10-23T09:44:46.120Z,4000.00
2017-10-23T09:45:46.116Z,4380.00
2017-10-23T09:46:46.116Z,4000.00
2017-10-23T09:47:46.110Z,3916.00
2017-10-23T09:48:46.108Z,3588.00
2017-10-23T09:49:46.103Z,3744.00
2017-10-23T09:50:46.103Z,3556.00
2017-10-23T09:51:46.097Z,3620.00
2017-10-23T09:52:46.096Z,3640.00
2017-10-23T09:53:46.093Z,3540.00
2017-10-23T09:54:46.094Z,3372.00
2017-10-23T09:55:46.085Z,3484.00
2017-10-23T09:56:46.082Z,3384.00
2017-10-23T09:57:46.083Z,3348.00
2017-10-23T09:58:46.079Z,2952.00
2017-10-23T09:59:46.074Z,2768.00
2017-10-23T10:00:46.071Z,3028.00
2017-10-23T10:01:46.064Z,3116.00
2017-10-23T10:02:46.064Z,3204.00
2017-10-23T10:03:46.061Z,3192.00
2017-10-23T10:04:46.058Z,3160.00
2017-10-23T10:05:46.055Z,3412.00
2017-10-23T10:06:46.052Z,3168.00
2017-10-23T10:07:46.051Z,3652.00
2017-10-23T10:08:46.044Z,4056.00
2017-10-23T10:09:46.043Z,3696.00
2017-10-23T10:10:46.039Z,3708.00
2017-10-23T10:11:46.035Z,4220.00
2017-10-23T10:12:46.033Z,4656.00
2017-10-23T10:13:46.032Z,4792.00
2017-10-23T10:14:46.029Z,4048.00
2017-10-23T10:15:46.033Z,3676.00
2017-10-23T10:16:46.021Z,3568.00
2017-10-23T10:17:46.019Z,3400.00
2017-10-23T10:18:46.016Z,4468.00
2017-10-23T10:19:46.016Z,3876.00
2017-10-23T10:20:46.003Z,4496.00
2017-10-23T10:21:46.005Z,3616.00
2017-10-23T10:22:46.005Z,3308.00
2017-10-23T10:23:46.003Z,3076.00
2017-10-23T10:24:45.997Z,4084.00
2017-10-23T10:25:45.999Z,3968.00
2017-10-23T10:26:45.992Z,3332.00
2017-10-23T10:27:45.991Z,2948.00
2017-10-23T10:28:45.986Z,2940.00
2017-10-23T10:29:45.986Z,3300.00
2017-10-23T10:30:45.981Z,3696.00
2017-10-23T10:31:45.974Z,3892.00
2017-10-23T10:32:45.970Z,4036.00
2017-10-23T10:33:45.971Z,4336.00
2017-10-23T10:34:45.969Z,3896.00
2017-10-23T10:35:45.960Z,3632.00
2017-10-23T10:36:45.961Z,3556.00
2017-10-23T10:37:45.961Z,3964.00
2017-10-23T10:38:45.967Z,5588.00
2017-10-23T10:39:45.947Z,4824.00
2017-10-23T10:40:45.953Z,4560.00
2017-10-23T10:41:45.948Z,5060.00
2017-10-23T10:42:45.943Z,4920.00
2017-10-23T10:43:45.940Z,4964.00
2017-10-23T10:44:45.934Z,4708.00
2017-10-23T10:45:45.933Z,4540.00
2017-10-23T10:46:45.933Z,3996.00
2017-10-23T10:47:45.929Z,4128.00
2017-10-23T10:48:45.923Z,4360.00
2017-10-23T10:49:45.937Z,4320.00
2017-10-23T10:50:45.920Z,4300.00
2017-10-23T10:51:45.915Z,4404.00
2017-10-23T10:52:45.914Z,4816.00
2017-10-23T10:53:45.909Z,4296.00
2017-10-23T10:54:45.906Z,4608.00
2017-10-23T10:55:45.914Z,4828.00
2017-10-23T10:56:45.898Z,4620.00
2017-10-23T10:57:45.896Z,3884.00
2017-10-23T10:58:45.895Z,3596.00
2017-10-23T10:59:45.891Z,3732.00
2017-10-23T11:00:45.886Z,3192.00
2017-10-23T11:01:45.884Z,3208.00
2017-10-23T11:02:45.885Z,3384.00
2017-10-23T11:03:45.879Z,3352.00
2017-10-23T11:04:45.875Z,3316.00
2017-10-23T11:05:45.872Z,3220.00
2017-10-23T11:06:45.876Z,3168.00
2017-10-23T11:07:45.869Z,3592.00
2017-10-23T11:08:45.862Z,3032.00
2017-10-23T11:09:45.854Z,4096.00
2017-10-23T11:10:45.878Z,3560.00
2017-10-23T11:11:45.852Z,3932.00
2017-10-23T11:12:45.849Z,3704.00
2017-10-23T11:13:45.847Z,4444.00
2017-10-23T11:14:45.842Z,4152.00
2017-10-23T11:15:45.839Z,4396.00
2017-10-23T11:16:45.836Z,4412.00
2017-10-23T11:17:45.835Z,5092.00
2017-10-23T11:18:45.833Z,4544.00
2017-10-23T11:19:45.823Z,3824.00
2017-10-23T11:20:45.823Z,3840.00
2017-10-23T11:21:45.822Z,3844.00
2017-10-23T11:22:45.817Z,3884.00
2017-10-23T11:23:45.812Z,3644.00
2017-10-23T11:24:45.809Z,3292.00
2017-10-23T11:25:45.809Z,2868.00
2017-10-23T11:26:45.805Z,2712.00
2017-10-23T11:27:45.803Z,2788.00
2017-10-23T11:28:45.793Z,2948.00
2017-10-23T11:29:45.796Z,3032.00
2017-10-23T11:30:45.785Z,3164.00
2017-10-23T11:31:45.785Z,4016.00
2017-10-23T11:32:45.786Z,4068.00
2017-10-23T11:33:45.779Z,4488.00
2017-10-23T11:34:45.776Z,4880.00
2017-10-23T11:35:45.771Z,4984.00
2017-10-23T11:36:45.770Z,5296.00
2017-10-23T11:37:45.768Z,4288.00
2017-10-23T11:38:45.772Z,5020.00
2017-10-23T11:39:45.761Z,4388.00
2017-10-23T11:40:45.760Z,3848.00
2017-10-23T11:41:45.757Z,3636.00
2017-10-23T11:42:45.753Z,4016.00
2017-10-23T11:43:45.745Z,4076.00
2017-10-23T11:44:45.742Z,3240.00
2017-10-23T11:45:45.742Z,2940.00
2017-10-23T11:46:45.739Z,3672.00
2017-10-23T11:47:45.736Z,3096.00
2017-10-23T11:48:45.730Z,3284.00
2017-10-23T11:49:45.740Z,3052.00
2017-10-23T11:50:45.772Z,3088.00
2017-10-23T11:51:45.719Z,2792.00
2017-10-23T11:52:45.716Z,2960.00
2017-10-23T11:53:45.712Z,3012.00
2017-10-23T11:54:45.707Z,3024.00
2017-10-23T11:55:45.706Z,2900.00
2017-10-23T11:56:45.703Z,2924.00
2017-10-23T11:57:45.702Z,2692.00
2017-10-23T11:58:45.697Z,2732.00
2017-10-23T11:59:45.694Z,2556.00
2017-10-23T12:00:45.689Z,2348.00
2017-10-23T12:01:45.689Z,2252.00
2017-10-23T12:02:45.683Z,2336.00
2017-10-23T12:03:45.684Z,2284.00
2017-10-23T12:04:45.677Z,2496.00
2017-10-23T12:05:45.676Z,2452.00
2017-10-23T12:06:45.670Z,2688.00
2017-10-23T12:07:45.665Z,3292.00
2017-10-23T12:08:45.665Z,3344.00
2017-10-23T12:09:45.664Z,3040.00
2017-10-23T12:10:45.657Z,3384.00
2017-10-23T12:11:45.654Z,3132.00
2017-10-23T12:12:45.653Z,3768.00
2017-10-23T12:13:45.650Z,4572.00
2017-10-23T12:14:45.647Z,4192.00
2017-10-23T12:15:45.641Z,5128.00
2017-10-23T12:16:45.642Z,4704.00
2017-10-23T12:17:45.642Z,4456.00
2017-10-23T12:18:45.632Z,5320.00
2017-10-23T12:19:45.628Z,5732.00
2017-10-23T12:20:45.623Z,6044.00
2017-10-23T12:21:45.622Z,5644.00
2017-10-23T12:22:45.620Z,4712.00
2017-10-23T12:23:45.620Z,3640.00
2017-10-23T12:24:45.614Z,3684.00
2017-10-23T12:25:45.605Z,4056.00
2017-10-23T12:26:45.611Z,3984.00
2017-10-23T12:27:45.616Z,4852.00
2017-10-23T12:28:45.599Z,4720.00
2017-10-23T12:29:45.599Z,3644.00
2017-10-23T12:30:45.606Z,2964.00
2017-10-23T12:31:45.589Z,3224.00
2017-10-23T12:32:45.589Z,3904.00
2017-10-23T12:33:45.588Z,4116.00
2017-10-23T12:34:45.584Z,4592.00
2017-10-23T12:35:45.578Z,3348.00
2017-10-23T12:36:45.578Z,2848.00
2017-10-23T12:37:45.580Z,4332.00
2017-10-23T12:38:45.571Z,4076.00